.
WxDataArchive / Data Records for 2006-01-20
2006-01-19 January 2006 2006-01-21

Data Records for Friday, 20 January 2006

Time	Temp	Chill	HIndex	Humid	Dewpt	 Wind 	HiWind	WindDir	Rain 	Barom 
-----	----	-----	------	-----	-----	------	------	-------	-----	----- 
00:00	53.3	53.3	53.3	76	45.9	5	9	248	0.00	29.854 
00:05	53.5	53.5	53.5	76	46.1	6	17	248	0.00	29.854 
00:10	53.6	53.6	53.6	76	46.2	5	11	248	0.00	29.854 
00:15	53.8	53.8	53.8	76	46.4	5	11	248	0.00	29.848 
00:20	53.8	53.8	53.8	76	46.4	6	15	248	0.00	29.848 
00:25	53.9	53.9	53.9	75	46.2	6	14	270	0.00	29.848 
00:30	53.9	53.9	53.9	76	46.5	5	12	248	0.00	29.848 
00:35	53.9	53.9	53.9	76	46.5	6	14	270	0.00	29.848 
00:40	54.1	54.1	54.1	75	46.4	5	11	248	0.00	29.848 
00:45	54.1	54.1	54.1	75	46.4	5	12	270	0.00	29.853 
00:50	54.1	54.1	54.1	75	46.4	6	12	270	0.00	29.853 
00:55	54.2	54.2	54.2	75	46.4	6	12	248	0.00	29.853 
01:00	54.2	54.2	54.2	75	46.4	5	12	248	0.00	29.854 
01:05	54.4	54.4	54.4	74	46.3	7	16	270	0.00	29.854 
01:10	54.4	54.4	54.4	74	46.3	6	17	270	0.00	29.854 
01:15	54.2	54.2	54.2	74	46.1	5	11	248	0.00	29.852 
01:20	54.2	54.2	54.2	74	46.1	5	12	248	0.00	29.852 
01:25	54.4	54.4	54.4	74	46.3	7	15	248	0.00	29.852 
01:30	54.2	54.2	54.2	74	46.1	5	11	248	0.00	29.852 
01:35	54.2	54.2	54.2	74	46.1	6	17	248	0.00	29.852 
01:40	54.2	54.2	54.2	74	46.1	6	18	270	0.00	29.852 
01:45	54.4	54.4	54.4	73	45.9	6	15	248	0.00	29.855 
01:50	54.4	54.4	54.4	73	45.9	4	12	248	0.00	29.855 
01:55	54.4	54.4	54.4	73	45.9	8	17	248	0.00	29.855 
02:00	54.4	54.4	54.4	73	45.9	6	13	248	0.00	29.862 
02:05	54.2	54.2	54.2	73	45.7	4	9	270	0.00	29.862 
02:10	54.4	54.4	54.4	73	45.9	6	11	248	0.00	29.862 
02:15	54.2	54.2	54.2	73	45.7	5	16	248	0.00	29.864 
02:20	54.2	54.2	54.2	73	45.7	5	10	270	0.00	29.864 
02:25	54.1	54.1	54.1	73	45.6	5	11	248	0.00	29.864 
02:30	54.1	54.1	54.1	73	45.6	5	11	248	0.00	29.868 
02:35	54.1	54.1	54.1	73	45.6	5	11	270	0.00	29.868 
02:40	54.1	54.1	54.1	72	45.3	5	10	248	0.00	29.868 
02:45	54.1	54.1	54.1	73	45.6	5	14	248	0.00	29.876 
02:50	54.2	54.2	54.2	73	45.7	6	18	270	0.00	29.876 
02:55	54.2	54.2	54.2	73	45.7	5	13	248	0.00	29.876 
03:00	54.1	54.1	54.1	73	45.6	6	16	248	0.00	29.882 
03:05	53.9	53.9	53.9	73	45.4	4	10	248	0.00	29.882 
03:10	53.8	53.8	53.8	74	45.7	7	16	248	0.00	29.882 
03:15	53.8	53.8	53.8	74	45.7	5	12	248	0.00	29.886 
03:20	53.6	53.6	53.6	74	45.5	5	11	248	0.00	29.886 
03:25	53.8	53.8	53.8	74	45.7	5	12	248	0.00	29.886 
03:30	53.8	53.8	53.8	74	45.7	6	13	270	0.00	29.890 
03:35	53.9	53.9	53.9	74	45.8	5	12	248	0.00	29.890 
03:40	53.9	53.9	53.9	74	45.8	5	12	248	0.00	29.890 
03:45	53.9	53.9	53.9	74	45.8	5	13	248	0.00	29.893 
03:50	53.9	53.9	53.9	74	45.8	5	10	270	0.00	29.893 
03:55	53.9	53.9	53.9	74	45.8	5	12	248	0.00	29.893 
04:00	54.1	54.1	54.1	74	46.0	7	14	248	0.00	29.896 
04:05	54.1	54.1	54.1	74	46.0	6	13	248	0.00	29.896 
04:10	53.9	53.9	53.9	74	45.8	5	14	248	0.00	29.896 
04:15	54.1	54.1	54.1	74	46.0	6	15	248	0.00	29.896 
04:20	54.1	54.1	54.1	74	46.0	5	11	248	0.00	29.896 
04:25	53.9	53.9	53.9	74	45.8	6	14	248	0.00	29.896 
04:30	53.9	53.9	53.9	75	46.2	5	13	248	0.00	29.896 
04:35	53.9	53.9	53.9	75	46.2	5	13	248	0.00	29.896 
04:40	53.9	53.9	53.9	75	46.2	5	10	248	0.00	29.896 
04:45	53.9	53.9	53.9	75	46.2	4	11	248	0.00	29.899 
04:50	53.9	53.9	53.9	75	46.2	6	14	270	0.00	29.899 
04:55	53.9	53.9	53.9	75	46.2	5	12	248	0.00	29.899 
05:00	53.9	53.9	53.9	75	46.2	5	12	248	0.00	29.902 
05:05	53.9	53.9	53.9	76	46.5	5	12	270	0.00	29.902 
05:10	53.9	53.9	53.9	76	46.5	6	16	248	0.00	29.902 
05:15	53.9	53.9	53.9	76	46.5	5	12	270	0.00	29.904 
05:20	53.9	53.9	53.9	76	46.5	6	12	270	0.00	29.904 
05:25	53.9	53.9	53.9	76	46.5	5	10	248	0.00	29.904 
05:30	53.9	53.9	53.9	76	46.5	7	15	248	0.00	29.902 
05:35	53.9	53.9	53.9	76	46.5	5	11	248	0.00	29.902 
05:40	53.9	53.9	53.9	80	47.9	6	15	270	0.00	29.902 
05:45	54.1	54.1	54.1	76	46.7	6	12	270	0.00	29.910 
05:50	54.1	54.1	54.1	76	46.7	6	12	248	0.00	29.910 
05:55	54.1	54.1	54.1	76	46.7	5	13	248	0.00	29.910 
06:00	53.9	53.9	53.9	76	46.5	5	12	270	0.00	29.915 
06:05	54.1	54.1	54.1	76	46.7	6	12	270	0.00	29.915 
06:10	54.1	54.1	54.1	76	46.7	6	12	270	0.00	29.915 
06:15	54.1	54.1	54.1	76	46.7	7	15	248	0.00	29.914 
06:20	54.2	54.2	54.2	76	46.8	6	16	270	0.00	29.914 
06:25	54.1	54.1	54.1	76	46.7	5	11	248	0.00	29.914 
06:30	54.1	54.1	54.1	76	46.7	6	13	248	0.00	29.916 
06:35	54.1	54.1	54.1	76	46.7	6	16	248	0.00	29.916 
06:40	54.1	54.1	54.1	77	47.0	5	12	248	0.00	29.916 
06:45	54.1	54.1	54.1	77	47.0	5	12	248	0.00	29.925 
06:50	53.9	53.9	53.9	77	46.9	5	11	248	0.00	29.925 
06:55	53.9	53.9	53.9	77	46.9	5	13	248	0.00	29.925 
07:00	53.8	53.8	53.8	77	46.8	5	11	248	0.00	29.929 
07:05	53.9	53.9	53.9	77	46.9	6	12	248	0.00	29.929 
07:10	53.9	53.9	53.9	77	46.9	6	14	270	0.00	29.929 
07:15	53.8	53.8	53.8	77	46.8	4	10	270	0.00	29.932 
07:20	53.6	53.6	53.6	77	46.6	4	10	248	0.00	29.932 
07:25	53.6	53.6	53.6	77	46.6	5	10	248	0.00	29.932 
07:30	53.6	53.6	53.6	78	46.9	4	10	270	0.00	29.939 
07:35	53.5	53.5	53.5	78	46.8	4	10	248	0.00	29.939 
07:40	53.5	53.5	53.5	78	46.8	4	10	248	0.00	29.939 
07:45	53.5	53.5	53.5	78	46.8	4	7	248	0.00	29.941 
07:50	53.3	53.3	53.3	78	46.6	4	10	248	0.00	29.941 
07:55	53.3	53.3	53.3	78	46.6	4	7	248	0.00	29.941 
08:00	53.3	53.3	53.3	78	46.6	4	11	270	0.00	29.947 
08:05	53.3	53.3	53.3	79	47.0	4	11	248	0.00	29.947 
08:10	53.2	53.2	53.2	79	46.9	4	9	248	0.00	29.947 
08:15	53.1	53.1	53.1	80	47.1	5	12	248	0.00	29.951 
08:20	52.9	52.9	52.9	80	46.9	5	14	248	0.00	29.951 
08:25	52.9	52.9	52.9	81	47.2	3	6	248	0.00	29.951 
08:30	52.8	52.8	52.8	81	47.1	4	11	248	0.00	29.960 
08:35	52.8	52.8	52.8	81	47.1	3	10	270	0.00	29.960 
08:40	52.8	52.8	52.8	81	47.1	5	11	248	0.00	29.960 
08:45	52.8	52.8	52.8	81	47.1	4	10	248	0.00	29.965 
08:50	52.8	52.8	52.8	81	47.1	4	11	270	0.00	29.965 
08:55	52.6	52.6	52.6	82	47.3	3	9	270	0.00	29.965 
09:00	52.6	52.6	52.6	82	47.3	5	13	248	0.00	29.974 
09:05	52.6	52.6	52.6	82	47.3	5	12	248	0.00	29.974 
09:10	52.6	52.6	52.6	82	47.3	5	10	248	0.00	29.974 
09:15	52.6	52.6	52.6	82	47.3	4	9	248	0.00	29.977 
09:20	52.6	52.6	52.6	82	47.3	4	10	270	0.00	29.977 
09:25	52.6	52.6	52.6	82	47.3	3	6	248	0.00	29.977 
09:30	52.6	52.6	52.6	83	47.6	4	10	248	0.00	29.981 
09:35	52.6	52.6	52.6	83	47.6	4	12	248	0.00	29.981 
09:40	52.6	52.6	52.6	83	47.6	4	10	248	0.00	29.981 
09:45	52.6	52.6	52.6	82	47.3	4	9	248	0.00	29.984 
09:50	52.6	52.6	52.6	83	47.6	2	5	248	0.00	29.984 
09:55	52.6	52.6	52.6	82	47.3	2	6	248	0.00	29.984 
10:00	52.6	52.6	52.6	82	47.3	2	4	248	0.00	29.986 
10:05	52.8	52.8	52.8	82	47.5	3	7	248	0.00	29.986 
10:10	52.8	52.8	52.8	82	47.5	3	7	248	0.00	29.986 
10:15	52.6	52.6	52.6	83	47.6	3	10	248	0.00	29.987 
10:20	52.6	52.6	52.6	83	47.6	3	10	248	0.00	29.987 
10:25	52.6	52.6	52.6	83	47.6	4	7	248	0.00	29.987 
10:30	52.6	52.6	52.6	83	47.6	2	5	248	0.00	29.989 
10:35	52.6	52.6	52.6	83	47.6	3	7	248	0.00	29.989 
10:40	52.6	52.6	52.6	83	47.6	3	5	248	0.00	29.989 
10:45	52.8	52.8	52.8	83	47.8	3	9	248	0.00	29.992 
10:50	52.8	52.8	52.8	83	47.8	3	5	248	0.00	29.992 
10:55	52.8	52.8	52.8	82	47.5	2	6	248	0.00	29.992 
11:00	52.8	52.8	52.8	82	47.5	3	5	248	0.00	29.993 
11:05	52.9	52.9	52.9	82	47.6	4	10	248	0.00	29.993 
11:10	52.9	52.9	52.9	81	47.2	3	5	248	0.00	29.993 
11:15	52.9	52.9	52.9	81	47.2	3	6	248	0.00	29.991 
11:20	53.1	53.1	53.1	81	47.4	3	8	248	0.00	29.991 
11:25	53.1	53.1	53.1	81	47.4	5	10	248	0.00	29.991 
11:30	53.2	53.2	53.2	81	47.5	4	10	248	0.00	29.990 
11:35	53.2	53.2	53.2	81	47.5	2	6	248	0.00	29.990 
11:40	53.2	53.2	53.2	81	47.5	4	10	248	0.00	29.990 
11:45	53.2	53.2	53.2	81	47.5	3	7	248	0.00	29.986 
11:50	53.2	53.2	53.2	81	47.5	3	8	248	0.00	29.986 
11:55	53.2	53.2	53.2	81	47.5	4	13	270	0.00	29.986 
12:00	53.2	53.2	53.2	81	47.5	3	7	248	0.00	29.979 
12:05	53.3	53.3	53.3	81	47.6	3	6	248	0.00	29.979 
12:10	53.3	53.3	53.3	81	47.6	2	7	248	0.00	29.979 
12:15	53.5	53.5	53.5	80	47.5	3	5	248	0.00	29.975 
12:20	53.5	53.5	53.5	80	47.5	4	11	248	0.00	29.975 
12:25	53.5	53.5	53.5	80	47.5	3	7	248	0.00	29.975 
12:30	53.6	53.6	53.6	80	47.6	2	7	248	0.00	29.972 
12:35	53.6	53.6	53.6	80	47.6	4	9	248	0.00	29.972 
12:40	53.6	53.6	53.6	80	47.6	3	6	248	0.00	29.972 
12:45	53.6	53.6	53.6	80	47.6	4	10	248	0.00	29.967 
12:50	53.5	53.5	53.5	80	47.5	4	9	248	0.00	29.967 
12:55	53.3	53.3	53.3	80	47.3	3	7	248	0.00	29.967 
13:00	53.3	53.3	53.3	80	47.3	3	10	248	0.00	29.960 
13:05	53.3	53.3	53.3	81	47.6	3	6	248	0.00	29.960 
13:10	53.3	53.3	53.3	81	47.6	3	6	248	0.00	29.960 
13:15	53.3	53.3	53.3	80	47.3	4	10	248	0.00	29.956 
13:20	53.3	53.3	53.3	80	47.3	3	12	248	0.00	29.956 
13:25	53.3	53.3	53.3	80	47.3	4	10	248	0.00	29.956 
13:30	53.3	53.3	53.3	80	47.3	4	8	248	0.00	29.949 
13:35	53.3	53.3	53.3	80	47.3	4	9	248	0.00	29.949 
13:40	53.3	53.3	53.3	80	47.3	2	7	270	0.00	29.949 
13:45	53.3	53.3	53.3	80	47.3	3	6	248	0.00	29.945 
13:50	53.5	53.5	53.5	80	47.5	3	11	248	0.00	29.945 
13:55	53.5	53.5	53.5	80	47.5	3	8	248	0.00	29.945 
14:00	53.5	53.5	53.5	80	47.5	3	5	248	0.00	29.941 
14:05	53.5	53.5	53.5	80	47.5	3	6	248	0.00	29.941 
14:10	53.3	53.3	53.3	80	47.3	3	5	248	0.00	29.941 
14:15	53.3	53.3	53.3	80	47.3	3	7	248	0.00	29.940 
14:20	53.3	53.3	53.3	81	47.6	2	5	248	0.00	29.940 
14:25	53.3	53.3	53.3	81	47.6	2	6	248	0.00	29.940 
14:30	53.3	53.3	53.3	81	47.6	2	3	248	0.00	29.934 
14:35	53.3	53.3	53.3	81	47.6	2	5	248	0.00	29.934 
14:40	53.2	53.2	53.2	82	47.8	1	3	248	0.00	29.934 
14:45	52.6	52.6	52.6	83	47.6	0	1	315	0.00	29.937 
14:50	51.9	51.9	51.9	85	47.5	0	2	315	0.00	29.937 
14:55	51.3	51.3	51.3	86	47.3	0	2	315	0.00	29.937 
15:00	51.1	51.1	51.1	87	47.4	0	1	315	0.00	29.940 
15:05	50.8	50.8	50.8	88	47.4	0	1	315	0.00	29.940 
15:10	50.5	50.5	50.5	88	47.1	0	2	315	0.00	29.940 
15:15	50.4	50.4	50.4	88	47.0	0	2	315	0.00	29.944 
15:20	50.1	50.1	50.1	88	46.7	0	1	315	0.00	29.944 
15:25	49.8	49.8	49.8	88	46.4	0	1	315	0.00	29.944 
15:30	49.5	49.5	49.5	89	46.4	0	1	315	0.00	29.946 
15:35	49.2	49.2	49.2	89	46.1	0	1	315	0.00	29.946 
15:40	49.1	49.1	49.1	89	46.0	0	0	---	0.00	29.946 
15:45	48.8	48.8	48.8	90	46.0	0	1	315	0.00	29.948 
15:50	48.6	48.6	48.6	91	46.1	0	1	315	0.00	29.948 
15:55	48.5	48.5	48.5	91	46.0	0	1	315	0.00	29.948 
16:00	48.3	48.3	48.3	92	46.1	0	1	315	0.00	29.946 
16:05	48.2	48.2	48.2	92	46.0	0	2	315	0.00	29.946 
16:10	48.2	48.2	48.2	92	46.0	0	2	0	0.00	29.946 
16:15	48.0	48.0	48.0	93	46.1	0	2	0	0.00	29.934 
16:20	48.0	48.0	48.0	93	46.1	0	3	0	0.00	29.934 
16:25	47.9	47.9	47.9	93	46.0	1	2	22	0.00	29.934 
16:30	47.9	47.9	47.9	93	46.0	1	3	45	0.00	29.933 
16:35	47.7	47.7	47.7	93	45.8	0	1	45	0.00	29.933 
16:40	47.6	47.6	47.6	93	45.7	0	1	45	0.00	29.933 
16:45	47.4	47.4	47.4	93	45.5	1	3	45	0.00	29.933 
16:50	47.3	47.3	47.3	93	45.4	0	2	45	0.00	29.933 
16:55	47.1	47.1	47.1	93	45.2	0	2	45	0.00	29.933 
17:00	47.0	47.0	47.0	94	45.4	0	2	45	0.00	29.930 
17:05	47.0	47.0	47.0	94	45.4	0	1	45	0.00	29.930 
17:10	47.0	47.0	47.0	94	45.4	0	2	45	0.00	29.930 
17:15	47.0	47.0	47.0	94	45.4	0	1	45	0.00	29.919 
17:20	47.0	47.0	47.0	94	45.4	0	1	45	0.00	29.919 
17:25	47.0	47.0	47.0	94	45.4	0	1	45	0.00	29.919 
17:30	47.1	47.1	47.1	94	45.5	0	1	45	0.00	29.916 
17:35	47.1	47.1	47.1	94	45.5	1	5	90	0.00	29.916 
17:40	47.1	47.1	47.1	94	45.5	1	3	90	0.00	29.916 
17:45	47.1	47.1	47.1	95	45.7	1	2	90	0.00	29.906 
17:50	47.3	47.3	47.3	95	45.9	1	2	90	0.00	29.906 
17:55	47.3	47.3	47.3	95	45.9	1	2	90	0.00	29.906 
18:00	47.4	47.4	47.4	95	46.0	1	2	90	0.00	29.901 
18:05	47.6	47.6	47.6	95	46.2	0	2	90	0.01	29.901 
18:10	47.6	47.6	47.6	95	46.2	1	2	90	0.01	29.901 
18:15	47.7	47.7	47.7	95	46.3	1	3	90	0.01	29.896 
18:20	47.7	47.7	47.7	95	46.3	0	2	90	0.00	29.896 
18:25	47.7	47.7	47.7	95	46.3	1	3	90	0.00	29.896 
18:30	47.9	47.9	47.9	95	46.5	1	2	90	0.00	29.888 
18:35	48.0	48.0	48.0	95	46.6	0	2	90	0.00	29.888 
18:40	48.0	48.0	48.0	95	46.6	0	0	---	0.00	29.888 
18:45	48.2	48.2	48.2	95	46.8	0	0	---	0.00	29.883 
18:50	48.3	48.3	48.3	95	46.9	0	0	---	0.00	29.883 
18:55	48.5	48.5	48.5	95	47.1	0	0	---	0.00	29.883 
19:00	48.5	48.5	48.5	95	47.1	0	1	90	0.00	29.873 
19:05	48.6	48.6	48.6	95	47.2	0	1	90	0.00	29.873 
19:10	48.6	48.6	48.6	95	47.2	0	2	90	0.00	29.873 
19:15	48.8	48.8	48.8	95	47.4	1	2	90	0.00	29.867 
19:20	48.9	48.9	48.9	95	47.5	1	3	112	0.00	29.867 
19:25	49.2	49.2	49.2	95	47.8	1	4	112	0.00	29.867 
19:30	49.5	49.5	49.5	95	48.1	1	3	112	0.00	29.862 
19:35	49.8	49.8	49.8	93	47.9	2	4	112	0.00	29.862 
19:40	50.2	50.2	50.2	92	48.0	2	4	112	0.00	29.862 
19:45	50.8	50.8	50.8	89	47.7	2	4	90	0.00	29.852 
19:50	51.3	51.3	51.3	87	47.6	2	4	90	0.00	29.852 
19:55	51.7	51.7	51.7	86	47.6	1	4	90	0.00	29.852 
20:00	52.0	52.0	52.0	85	47.6	2	7	112	0.00	29.850 
20:05	52.3	52.3	52.3	84	47.6	2	5	90	0.00	29.850 
20:10	52.6	52.6	52.6	84	47.9	2	5	90	0.00	29.850 
20:15	52.6	52.6	52.6	83	47.6	3	6	90	0.00	29.842 
20:20	52.8	52.8	52.8	83	47.8	2	6	90	0.00	29.842 
20:25	52.8	52.8	52.8	84	48.1	2	7	90	0.01	29.842 
20:30	52.6	52.6	52.6	84	47.9	2	6	90	0.00	29.832 
20:35	52.6	52.6	52.6	84	47.9	3	10	90	0.00	29.832 
20:40	52.6	52.6	52.6	84	47.9	2	5	90	0.00	29.832 
20:45	52.8	52.8	52.8	84	48.1	3	7	90	0.00	29.825 
20:50	52.8	52.8	52.8	84	48.1	2	6	90	0.00	29.825 
20:55	52.8	52.8	52.8	84	48.1	2	4	22	0.00	29.825 
21:00	52.8	52.8	52.8	85	48.4	2	5	248	0.00	29.817 
21:05	52.9	52.9	52.9	85	48.5	2	5	248	0.00	29.817 
21:10	52.9	52.9	52.9	85	48.5	3	9	202	0.00	29.817 
21:15	53.1	53.1	53.1	86	49.0	3	7	248	0.00	29.804 
21:20	52.9	52.9	52.9	86	48.8	2	5	90	0.00	29.804 
21:25	52.8	52.8	52.8	86	48.7	2	9	90	0.00	29.804 
21:30	52.8	52.8	52.8	87	49.0	3	7	90	0.00	29.797 
21:35	52.8	52.8	52.8	87	49.0	3	9	315	0.00	29.797 
21:40	52.6	52.6	52.6	88	49.1	2	5	68	0.00	29.797 
21:45	52.5	52.5	52.5	88	49.0	3	9	90	0.00	29.791 
21:50	52.5	52.5	52.5	88	49.0	3	7	90	0.00	29.791 
21:55	52.3	52.3	52.3	88	48.9	3	6	270	0.01	29.791 
22:00	52.3	52.3	52.3	89	49.2	2	6	225	0.00	29.784 
22:05	52.3	52.3	52.3	89	49.2	3	7	68	0.00	29.784 
22:10	52.2	52.2	52.2	89	49.1	2	5	248	0.00	29.784 
22:15	52.2	52.2	52.2	89	49.1	2	6	68	0.00	29.771 
22:20	52.2	52.2	52.2	89	49.1	2	6	292	0.00	29.771 
22:25	52.2	52.2	52.2	89	49.1	2	6	338	0.00	29.771 
22:30	52.2	52.2	52.2	89	49.1	2	7	68	0.00	29.756 
22:35	52.2	52.2	52.2	88	48.8	3	7	90	0.00	29.756 
22:40	52.2	52.2	52.2	88	48.8	3	10	90	0.00	29.756 
22:45	52.3	52.3	52.3	88	48.9	3	10	90	0.00	29.746 
22:50	52.3	52.3	52.3	87	48.5	2	6	90	0.00	29.746 
22:55	52.3	52.3	52.3	87	48.5	3	9	68	0.00	29.746 
23:00	52.3	52.3	52.3	87	48.5	2	5	68	0.00	29.741 
23:05	52.3	52.3	52.3	86	48.2	3	6	90	0.00	29.741 
23:10	52.3	52.3	52.3	86	48.2	2	7	90	0.00	29.741 
23:15	52.3	52.3	52.3	85	47.9	2	7	90	0.00	29.738 
23:20	52.3	52.3	52.3	85	47.9	3	6	270	0.00	29.738 
23:25	52.5	52.5	52.5	85	48.1	2	6	270	0.00	29.738 
23:30	52.5	52.5	52.5	84	47.8	2	9	338	0.00	29.726 
23:35	52.5	52.5	52.5	84	47.8	2	6	270	0.00	29.726 
23:40	52.6	52.6	52.6	84	47.9	3	6	90	0.00	29.726 
23:45	52.8	52.8	52.8	83	47.8	3	8	270	0.00	29.710 
23:50	52.8	52.8	52.8	82	47.5	3	16	270	0.00	29.710 
23:55	53.1	53.1	53.1	81	47.4	3	7	270	0.00	29.710 

CoCoRaHS
IN-AL-39
A2 Web Hosting
Creative Commons License
GoDaddy
Look for:

loaded 2017-12-13 19:53:58 • last modified 2010-11-18 10:43:29
Privacy PolicyDisclaimer
• wx.awcolley.com is powered by PmWiki v.2002016 •
• all content (unless otherwise noted) © 2017 A W Colley